Time;durP1;ratioP1;P1;durP2;ratioP2;P2;SDS_P1;SDS_P2;PMS_P1;PMS_P2;Temp;Humidity;BMP_temperature;BMP_pressure;BME280_temperature;BME280_humidity;BME280_pressure;Samples;Min_cycle;Max_cycle;Signal;HPM_P1;HPM_P2
2022/03/26 00:00:37;;;;;;;13.10;7.82;;;;;;;;;;4974625;28;20042;-70
2022/03/26 00:03:12;;;;;;;21.50;9.05;;;;;;;;;;4974685;28;20358;-69
2022/03/26 00:05:39;;;;;;;14.40;8.20;;;;;;;;;;4974561;28;20038;-69
2022/03/26 00:08:06;;;;;;;14.70;7.80;;;;;;;;;;4973282;28;20033;-69
2022/03/26 00:10:32;;;;;;;12.27;7.70;;;;;;;;;;4974388;28;20054;-68
2022/03/26 00:12:58;;;;;;;14.27;7.90;;;;;;;;;;4974297;28;20034;-69
2022/03/26 00:15:25;;;;;;;14.15;8.00;;;;;;;;;;4973287;28;20109;-70
2022/03/26 00:17:51;;;;;;;13.50;8.57;;;;;;;;;;4974171;28;20033;-70
2022/03/26 00:20:17;;;;;;;20.13;8.68;;;;;;;;;;4969767;28;20031;-69
2022/03/26 00:22:43;;;;;;;14.35;8.13;;;;;;;;;;4963524;28;20023;-72
2022/03/26 00:25:10;;;;;;;13.50;7.90;;;;;;;;;;4967106;28;20035;-70
2022/03/26 00:27:36;;;;;;;16.45;7.80;;;;;;;;;;4974393;28;20599;-70
2022/03/26 00:30:04;;;;;;;12.43;7.28;;;;;;;;;;4974155;28;20043;-68
2022/03/26 00:32:30;;;;;;;13.07;6.50;;;;;;;;;;4972443;28;20035;-68
2022/03/26 00:34:57;;;;;;;11.80;6.18;;;;;;;;;;4963945;28;20250;-67
2022/03/26 00:37:24;;;;;;;10.88;6.00;;;;;;;;;;4959438;28;20370;-69
2022/03/26 00:39:50;;;;;;;16.30;7.07;;;;;;;;;;4968128;28;20066;-66
2022/03/26 00:42:16;;;;;;;9.93;5.72;;;;;;;;;;4963210;28;20512;-67
2022/03/26 00:44:42;;;;;;;11.20;6.03;;;;;;;;;;4954548;28;20401;-66
2022/03/26 00:47:08;;;;;;;14.43;6.70;;;;;;;;;;4954364;28;20035;-68
2022/03/26 00:49:35;;;;;;;11.70;6.32;;;;;;;;;;4954690;28;20426;-67
2022/03/26 00:52:02;;;;;;;13.02;6.82;;;;;;;;;;4956138;28;20159;-68
2022/03/26 00:54:28;;;;;;;10.73;5.95;;;;;;;;;;4969398;28;20493;-67
2022/03/26 00:56:53;;;;;;;9.70;5.93;;;;;;;;;;4964703;28;20039;-69
2022/03/26 00:59:19;;;;;;;10.70;5.60;;;;;;;;;;4973369;28;20038;-68
2022/03/26 01:01:46;;;;;;;12.77;6.10;;;;;;;;;;4973336;28;20026;-68
2022/03/26 01:04:12;;;;;;;9.73;6.38;;;;;;;;;;4973947;28;20477;-68
2022/03/26 01:06:37;;;;;;;16.15;6.28;;;;;;;;;;4973062;28;20114;-69
2022/03/26 01:09:03;;;;;;;10.65;6.72;;;;;;;;;;4973664;28;20070;-68
2022/03/26 01:11:29;;;;;;;12.25;6.60;;;;;;;;;;4972129;28;20398;-66
2022/03/26 01:13:56;;;;;;;11.43;5.80;;;;;;;;;;4973347;28;20093;-69
2022/03/26 01:16:26;;;;;;;11.05;5.30;;;;;;;;;;4973192;28;20031;-69
2022/03/26 01:18:53;;;;;;;9.75;5.78;;;;;;;;;;4973891;28;20067;-68
2022/03/26 01:21:19;;;;;;;9.95;5.30;;;;;;;;;;4971159;28;20046;-68
2022/03/26 01:23:49;;;;;;;11.48;5.72;;;;;;;;;;4973270;28;20030;-69
2022/03/26 01:26:16;;;;;;;11.23;6.13;;;;;;;;;;4973266;28;20426;-71
2022/03/26 01:28:43;;;;;;;13.85;6.32;;;;;;;;;;4973134;28;20089;-73
2022/03/26 01:31:09;;;;;;;10.00;5.63;;;;;;;;;;4973364;28;20066;-70
2022/03/26 01:33:35;;;;;;;27.05;9.07;;;;;;;;;;4972598;28;20037;-70
2022/03/26 01:36:02;;;;;;;14.43;6.72;;;;;;;;;;4973174;28;20037;-69
2022/03/26 01:38:28;;;;;;;12.52;6.13;;;;;;;;;;4973385;28;20417;-71
2022/03/26 01:40:54;;;;;;;11.70;6.07;;;;;;;;;;4973324;28;20039;-70
2022/03/26 01:43:20;;;;;;;12.55;5.95;;;;;;;;;;4973383;28;20027;-70
2022/03/26 01:45:46;;;;;;;10.55;5.90;;;;;;;;;;4973147;28;20055;-71
2022/03/26 01:48:11;;;;;;;13.23;7.45;;;;;;;;;;4973314;28;20023;-68
2022/03/26 01:50:40;;;;;;;10.70;6.35;;;;;;;;;;4973192;28;20058;-69
2022/03/26 01:53:06;;;;;;;11.32;6.50;;;;;;;;;;4973264;28;20031;-69
2022/03/26 01:55:32;;;;;;;11.75;6.07;;;;;;;;;;4973278;28;20052;-69
2022/03/26 01:57:59;;;;;;;11.88;6.35;;;;;;;;;;4972877;28;20023;-69
2022/03/26 02:00:25;;;;;;;11.70;5.85;;;;;;;;;;4972977;28;20457;-68
2022/03/26 02:02:51;;;;;;;10.05;5.47;;;;;;;;;;4972856;28;20105;-68
2022/03/26 02:05:18;;;;;;;11.27;6.22;;;;;;;;;;4972404;28;20034;-68
2022/03/26 02:07:46;;;;;;;10.38;6.03;;;;;;;;;;4972487;28;20027;-67
2022/03/26 02:10:14;;;;;;;9.27;5.55;;;;;;;;;;4972395;28;20043;-68
2022/03/26 02:12:41;;;;;;;12.43;6.25;;;;;;;;;;4972618;28;20034;-68
2022/03/26 02:15:07;;;;;;;13.77;6.18;;;;;;;;;;4972549;28;20089;-70
2022/03/26 02:17:34;;;;;;;10.65;5.80;;;;;;;;;;4972432;28;20043;-69
2022/03/26 02:20:02;;;;;;;10.95;5.47;;;;;;;;;;4972348;28;20023;-70
2022/03/26 02:22:29;;;;;;;12.23;6.10;;;;;;;;;;4972434;28;20378;-68
2022/03/26 02:24:55;;;;;;;11.45;6.50;;;;;;;;;;4972408;28;20035;-69
2022/03/26 02:27:22;;;;;;;11.02;6.15;;;;;;;;;;4972683;28;20065;-68
2022/03/26 02:29:49;;;;;;;11.52;6.00;;;;;;;;;;4972650;28;20042;-69
2022/03/26 02:32:18;;;;;;;17.00;6.35;;;;;;;;;;4972713;28;20106;-69
2022/03/26 02:34:44;;;;;;;13.82;6.13;;;;;;;;;;4972871;28;20035;-67
2022/03/26 02:37:10;;;;;;;11.38;6.70;;;;;;;;;;4972473;28;20580;-68
2022/03/26 02:39:35;;;;;;;10.02;6.68;;;;;;;;;;4972482;28;20564;-69
2022/03/26 02:42:01;;;;;;;11.25;6.88;;;;;;;;;;4972153;28;20023;-68
2022/03/26 02:44:27;;;;;;;10.60;6.05;;;;;;;;;;4974126;28;20031;-68
2022/03/26 02:46:53;;;;;;;12.63;6.28;;;;;;;;;;4975682;28;20466;-69
2022/03/26 02:49:19;;;;;;;10.07;6.30;;;;;;;;;;4976320;28;20047;-68
2022/03/26 02:51:44;;;;;;;14.05;6.65;;;;;;;;;;4976425;28;20030;-69
2022/03/26 02:54:18;;;;;;;11.25;6.18;;;;;;;;;;4976188;28;20038;-68
2022/03/26 02:56:49;;;;;;;14.02;6.20;;;;;;;;;;4975843;28;20038;-68
2022/03/26 02:59:15;;;;;;;12.88;6.22;;;;;;;;;;4975803;28;20034;-69
2022/03/26 03:01:41;;;;;;;14.90;8.15;;;;;;;;;;4975453;28;20027;-69
2022/03/26 03:04:07;;;;;;;11.55;7.13;;;;;;;;;;4975267;28;20057;-68
2022/03/26 03:06:34;;;;;;;14.02;6.22;;;;;;;;;;4975237;28;20026;-68
2022/03/26 03:09:03;;;;;;;15.27;7.13;;;;;;;;;;4976037;28;20042;-68
2022/03/26 03:11:29;;;;;;;15.77;6.22;;;;;;;;;;4976738;28;20101;-69
2022/03/26 03:13:55;;;;;;;10.95;6.15;;;;;;;;;;4975881;28;20565;-67
2022/03/26 03:16:21;;;;;;;7.78;5.38;;;;;;;;;;4975581;28;20023;-68
2022/03/26 03:18:47;;;;;;;12.77;6.00;;;;;;;;;;4975443;28;20066;-68
2022/03/26 03:21:13;;;;;;;13.65;6.18;;;;;;;;;;4972534;28;20528;-68
2022/03/26 03:23:39;;;;;;;11.95;6.25;;;;;;;;;;4972667;28;20035;-68
2022/03/26 03:26:05;;;;;;;11.07;5.60;;;;;;;;;;4969623;28;20392;-68
2022/03/26 03:28:30;;;;;;;11.95;6.18;;;;;;;;;;4960847;28;20117;-69
2022/03/26 03:30:56;;;;;;;9.32;5.65;;;;;;;;;;4955780;28;20495;-70
2022/03/26 03:33:22;;;;;;;13.77;7.05;;;;;;;;;;4962642;28;20033;-70
2022/03/26 03:35:49;;;;;;;13.55;6.25;;;;;;;;;;4975111;28;20482;-68
2022/03/26 03:38:15;;;;;;;11.40;5.93;;;;;;;;;;4975079;28;20549;-69
2022/03/26 03:40:41;;;;;;;12.85;6.15;;;;;;;;;;4974993;28;20106;-68
2022/03/26 03:43:07;;;;;;;9.40;5.28;;;;;;;;;;4975252;28;20054;-69
2022/03/26 03:45:34;;;;;;;8.75;4.90;;;;;;;;;;4974645;28;20027;-69
2022/03/26 03:48:00;;;;;;;10.57;4.93;;;;;;;;;;4974679;28;20173;-68
2022/03/26 03:50:26;;;;;;;11.68;4.90;;;;;;;;;;4974983;28;20033;-67
2022/03/26 03:52:52;;;;;;;10.27;5.10;;;;;;;;;;4975080;28;20548;-68
2022/03/26 03:55:19;;;;;;;10.23;4.57;;;;;;;;;;4973596;28;20101;-69
2022/03/26 03:57:45;;;;;;;10.90;5.07;;;;;;;;;;4974510;28;20089;-69
2022/03/26 04:00:13;;;;;;;14.00;5.05;;;;;;;;;;4974511;28;20031;-69
2022/03/26 04:02:40;;;;;;;14.02;4.65;;;;;;;;;;4974721;28;20047;-68
2022/03/26 04:05:09;;;;;;;8.15;4.68;;;;;;;;;;4974381;28;20046;-68
2022/03/26 04:07:37;;;;;;;9.25;4.65;;;;;;;;;;4974363;28;20038;-68
2022/03/26 04:10:04;;;;;;;10.02;4.93;;;;;;;;;;4974260;28;20043;-68
2022/03/26 04:12:30;;;;;;;10.32;5.82;;;;;;;;;;4974395;28;20041;-68
2022/03/26 04:14:56;;;;;;;9.70;5.00;;;;;;;;;;4974710;28;20035;-69
2022/03/26 04:17:22;;;;;;;11.23;6.10;;;;;;;;;;4974826;28;20531;-67
2022/03/26 04:19:48;;;;;;;10.98;5.38;;;;;;;;;;4974305;28;20398;-69
2022/03/26 04:22:14;;;;;;;9.98;5.30;;;;;;;;;;4974135;28;20039;-69
2022/03/26 04:24:40;;;;;;;9.73;5.57;;;;;;;;;;4973904;28;20358;-68
2022/03/26 04:27:06;;;;;;;16.45;5.65;;;;;;;;;;4974231;28;20034;-69
2022/03/26 04:29:32;;;;;;;16.70;6.40;;;;;;;;;;4974391;28;20109;-69
2022/03/26 04:31:59;;;;;;;14.15;6.10;;;;;;;;;;4974350;28;20133;-69
2022/03/26 04:34:25;;;;;;;15.05;6.03;;;;;;;;;;4974209;28;20037;-68
2022/03/26 04:36:51;;;;;;;12.70;6.13;;;;;;;;;;4973725;28;20042;-68
2022/03/26 04:39:17;;;;;;;12.45;6.50;;;;;;;;;;4973830;28;20109;-70
2022/03/26 04:41:43;;;;;;;10.88;6.50;;;;;;;;;;4973754;28;20042;-69
2022/03/26 04:44:08;;;;;;;14.88;8.00;;;;;;;;;;4973735;28;20027;-69
2022/03/26 04:46:34;;;;;;;16.98;7.57;;;;;;;;;;4973636;28;20043;-68
2022/03/26 04:49:00;;;;;;;15.10;7.32;;;;;;;;;;4969706;28;20030;-69
2022/03/26 04:51:26;;;;;;;14.32;6.85;;;;;;;;;;4973817;28;20089;-68
2022/03/26 04:53:52;;;;;;;13.10;7.55;;;;;;;;;;4973758;28;20027;-69
2022/03/26 04:56:18;;;;;;;11.45;7.28;;;;;;;;;;4973347;28;20035;-67
2022/03/26 04:58:44;;;;;;;11.93;7.30;;;;;;;;;;4972996;28;20030;-69
2022/03/26 05:01:10;;;;;;;14.00;7.72;;;;;;;;;;4972887;28;20046;-69
2022/03/26 05:03:36;;;;;;;13.63;7.53;;;;;;;;;;4973008;28;20549;-69
2022/03/26 05:06:01;;;;;;;14.82;7.68;;;;;;;;;;4971916;28;20486;-68
2022/03/26 05:08:27;;;;;;;21.10;8.45;;;;;;;;;;4971924;28;20580;-69
2022/03/26 05:10:54;;;;;;;20.35;8.50;;;;;;;;;;4972389;28;20176;-69
2022/03/26 05:13:20;;;;;;;22.30;8.65;;;;;;;;;;4974293;28;20114;-69
2022/03/26 05:15:46;;;;;;;12.73;7.45;;;;;;;;;;4974097;28;20070;-70
2022/03/26 05:18:13;;;;;;;20.02;8.40;;;;;;;;;;4972710;28;20034;-69
2022/03/26 05:20:39;;;;;;;20.02;8.15;;;;;;;;;;4974758;28;20071;-69
2022/03/26 05:23:05;;;;;;;18.25;7.68;;;;;;;;;;4974756;28;20030;-70
2022/03/26 05:25:31;;;;;;;19.60;8.52;;;;;;;;;;4974712;28;20054;-68
2022/03/26 05:27:58;;;;;;;13.68;8.18;;;;;;;;;;4973171;28;20041;-69
2022/03/26 05:30:24;;;;;;;18.80;9.10;;;;;;;;;;4974520;28;20062;-70
2022/03/26 05:32:50;;;;;;;14.45;7.35;;;;;;;;;;4974253;28;20023;-69
2022/03/26 05:35:16;;;;;;;23.05;8.25;;;;;;;;;;4967134;28;20501;-69
2022/03/26 05:37:46;;;;;;;22.98;9.35;;;;;;;;;;4973782;28;20031;-68
2022/03/26 05:40:15;;;;;;;16.85;9.02;;;;;;;;;;4974001;28;20031;-69
2022/03/26 05:42:41;;;;;;;21.50;8.90;;;;;;;;;;4974145;28;20027;-71
2022/03/26 05:45:08;;;;;;;17.73;8.23;;;;;;;;;;4973786;28;20563;-69
2022/03/26 05:47:34;;;;;;;16.90;8.27;;;;;;;;;;4973385;28;20098;-75
2022/03/26 05:50:00;;;;;;;26.92;8.70;;;;;;;;;;4974050;28;20049;-72
2022/03/26 05:52:26;;;;;;;15.25;7.80;;;;;;;;;;4974004;28;20035;-73
2022/03/26 05:54:52;;;;;;;18.75;8.23;;;;;;;;;;4973480;28;20030;-76
2022/03/26 05:57:21;;;;;;;16.88;7.70;;;;;;;;;;4968194;28;20026;-73
2022/03/26 05:59:46;;;;;;;20.17;8.25;;;;;;;;;;4954551;28;20055;-72
2022/03/26 06:02:13;;;;;;;20.40;9.50;;;;;;;;;;4953251;28;20066;-73
2022/03/26 06:04:43;;;;;;;21.30;8.90;;;;;;;;;;4954740;28;20582;-73
2022/03/26 06:07:09;;;;;;;23.30;10.10;;;;;;;;;;4954701;28;20498;-73
2022/03/26 06:09:36;;;;;;;19.88;9.40;;;;;;;;;;4953422;29;20141;-73
2022/03/26 06:12:03;;;;;;;16.73;8.55;;;;;;;;;;4954603;28;20031;-73
2022/03/26 06:14:29;;;;;;;18.70;8.98;;;;;;;;;;4954578;28;20116;-73
2022/03/26 06:16:56;;;;;;;23.88;9.30;;;;;;;;;;4954084;28;20043;-73
2022/03/26 06:19:22;;;;;;;18.98;8.68;;;;;;;;;;4964473;28;20473;-74
2022/03/26 06:21:48;;;;;;;33.22;9.75;;;;;;;;;;4977136;28;20091;-74
2022/03/26 06:24:14;;;;;;;20.75;8.30;;;;;;;;;;4976390;28;20504;-72
2022/03/26 06:26:43;;;;;;;17.52;8.25;;;;;;;;;;4968097;28;20044;-72
2022/03/26 06:29:10;;;;;;;19.15;8.30;;;;;;;;;;4957865;28;20043;-74
2022/03/26 06:31:36;;;;;;;21.75;9.05;;;;;;;;;;4960617;28;20389;-73
2022/03/26 06:34:02;;;;;;;21.60;8.43;;;;;;;;;;4976529;28;20022;-73
2022/03/26 06:36:27;;;;;;;20.70;8.85;;;;;;;;;;4976761;28;20512;-71
2022/03/26 06:38:53;;;;;;;25.98;8.00;;;;;;;;;;4970952;28;20027;-73
2022/03/26 06:41:19;;;;;;;22.63;9.05;;;;;;;;;;4966830;28;20042;-73
2022/03/26 06:43:46;;;;;;;21.65;8.40;;;;;;;;;;4976861;28;20031;-73
2022/03/26 06:46:12;;;;;;;28.60;10.10;;;;;;;;;;4976321;28;20090;-73
2022/03/26 06:48:38;;;;;;;24.67;9.30;;;;;;;;;;4978406;28;20048;-72
2022/03/26 06:51:06;;;;;;;16.10;7.93;;;;;;;;;;4976407;28;20065;-73
2022/03/26 06:53:35;;;;;;;20.95;9.88;;;;;;;;;;4976732;28;20110;-74
2022/03/26 06:56:02;;;;;;;19.20;7.93;;;;;;;;;;4977000;28;20035;-74
2022/03/26 06:58:28;;;;;;;21.83;8.13;;;;;;;;;;4977126;28;20162;-72
2022/03/26 07:00:55;;;;;;;23.52;8.68;;;;;;;;;;4976858;28;20390;-73
2022/03/26 07:03:24;;;;;;;15.90;7.78;;;;;;;;;;4976727;28;20027;-72
2022/03/26 07:05:50;;;;;;;20.73;7.90;;;;;;;;;;4978519;28;20441;-73
2022/03/26 07:08:16;;;;;;;20.55;7.28;;;;;;;;;;4992266;28;20030;-72
2022/03/26 07:10:45;;;;;;;16.90;7.32;;;;;;;;;;4992114;28;20053;-71
2022/03/26 07:13:14;;;;;;;15.30;6.40;;;;;;;;;;4978200;28;20394;-73
2022/03/26 07:15:41;;;;;;;15.95;6.80;;;;;;;;;;4972554;28;20033;-71
2022/03/26 07:18:08;;;;;;;15.73;6.82;;;;;;;;;;4976030;28;20086;-73
2022/03/26 07:20:34;;;;;;;15.73;6.38;;;;;;;;;;4970680;28;20059;-72
2022/03/26 07:23:00;;;;;;;16.20;5.78;;;;;;;;;;4971220;28;20116;-72
2022/03/26 07:25:26;;;;;;;15.23;5.90;;;;;;;;;;4975761;28;20454;-73
2022/03/26 07:27:52;;;;;;;13.77;5.88;;;;;;;;;;4975608;28;20027;-75
2022/03/26 07:30:19;;;;;;;15.30;7.05;;;;;;;;;;4972787;28;20106;-73
2022/03/26 07:32:45;;;;;;;16.05;6.55;;;;;;;;;;4990037;28;20041;-73
2022/03/26 07:35:11;;;;;;;15.85;5.90;;;;;;;;;;4975582;28;20118;-72
2022/03/26 07:37:37;;;;;;;13.38;5.70;;;;;;;;;;4975390;28;20432;-72
2022/03/26 07:40:04;;;;;;;17.08;5.95;;;;;;;;;;4975597;28;20035;-74
2022/03/26 07:42:30;;;;;;;13.00;4.82;;;;;;;;;;4974496;28;20055;-75
2022/03/26 07:44:56;;;;;;;14.07;5.50;;;;;;;;;;4975215;28;20035;-74
2022/03/26 07:47:21;;;;;;;12.98;5.60;;;;;;;;;;4975909;28;20058;-73
2022/03/26 07:49:47;;;;;;;11.77;5.38;;;;;;;;;;4975340;28;20125;-74
2022/03/26 07:52:13;;;;;;;11.50;5.40;;;;;;;;;;4965624;28;20114;-74
2022/03/26 07:54:39;;;;;;;13.98;5.45;;;;;;;;;;4974931;28;20122;-73
2022/03/26 07:57:05;;;;;;;10.25;5.63;;;;;;;;;;4975244;28;20031;-73
2022/03/26 07:59:31;;;;;;;12.88;6.65;;;;;;;;;;4975320;28;20076;-75
2022/03/26 08:01:57;;;;;;;14.20;5.88;;;;;;;;;;4974426;28;20045;-74
2022/03/26 08:04:23;;;;;;;15.70;5.75;;;;;;;;;;4973649;28;20043;-75
2022/03/26 08:06:49;;;;;;;13.52;5.75;;;;;;;;;;4974563;28;20049;-76
2022/03/26 08:09:15;;;;;;;11.27;5.60;;;;;;;;;;4963046;28;20047;-76
2022/03/26 08:11:42;;;;;;;12.00;5.32;;;;;;;;;;4957064;28;20094;-73
2022/03/26 08:14:08;;;;;;;14.57;5.30;;;;;;;;;;4975199;28;20228;-77
2022/03/26 08:16:34;;;;;;;13.63;5.00;;;;;;;;;;4974506;28;20118;-75
2022/03/26 08:19:00;;;;;;;14.15;5.55;;;;;;;;;;4974456;28;20122;-75
2022/03/26 08:21:26;;;;;;;12.50;5.68;;;;;;;;;;4972999;28;20609;-73
2022/03/26 08:23:53;;;;;;;14.10;5.65;;;;;;;;;;4973535;28;20035;-73
2022/03/26 08:26:29;;;;;;;12.95;5.45;;;;;;;;;;4974028;28;20389;-75
2022/03/26 08:29:00;;;;;;;11.38;5.63;;;;;;;;;;4973065;28;20058;-76
2022/03/26 08:31:29;;;;;;;14.38;5.50;;;;;;;;;;4974469;28;20035;-73
2022/03/26 08:33:55;;;;;;;11.43;5.65;;;;;;;;;;4974189;28;20027;-77
2022/03/26 08:36:22;;;;;;;15.20;5.57;;;;;;;;;;4972724;28;20042;-77
2022/03/26 08:38:48;;;;;;;10.90;5.32;;;;;;;;;;4966270;28;20033;-75
2022/03/26 08:41:17;;;;;;;15.15;5.05;;;;;;;;;;4967631;28;20081;-75
2022/03/26 08:43:43;;;;;;;8.85;5.20;;;;;;;;;;4966099;28;20391;-72
2022/03/26 08:46:09;;;;;;;11.48;5.28;;;;;;;;;;4957848;28;20035;-74
2022/03/26 08:48:35;;;;;;;12.50;5.05;;;;;;;;;;4969026;28;20201;-77
2022/03/26 08:51:03;;;;;;;9.73;5.25;;;;;;;;;;4973680;28;20030;-75
2022/03/26 08:53:28;;;;;;;12.82;5.60;;;;;;;;;;4964811;28;20023;-76
2022/03/26 08:55:55;;;;;;;11.70;5.75;;;;;;;;;;4958931;28;20501;-73
2022/03/26 08:58:21;;;;;;;11.27;5.15;;;;;;;;;;4973205;28;20498;-75
2022/03/26 09:00:48;;;;;;;8.38;5.20;;;;;;;;;;4973845;28;20070;-75
2022/03/26 09:03:19;;;;;;;9.45;5.20;;;;;;;;;;4973969;28;20027;-74
2022/03/26 09:05:53;;;;;;;11.65;5.50;;;;;;;;;;4972393;28;20038;-72
2022/03/26 09:08:19;;;;;;;7.65;5.05;;;;;;;;;;4973816;28;20038;-75
2022/03/26 09:10:45;;;;;;;11.38;5.72;;;;;;;;;;4973703;28;20129;-74
2022/03/26 09:13:12;;;;;;;7.68;4.63;;;;;;;;;;4973753;28;20115;-74
2022/03/26 09:15:38;;;;;;;12.80;4.80;;;;;;;;;;4973854;28;20030;-74
2022/03/26 09:18:04;;;;;;;8.85;5.22;;;;;;;;;;4973465;28;20126;-73
2022/03/26 09:20:30;;;;;;;13.32;6.10;;;;;;;;;;4973897;28;20023;-72
2022/03/26 09:22:56;;;;;;;12.77;5.28;;;;;;;;;;4973240;28;20039;-74
2022/03/26 09:25:22;;;;;;;10.93;5.35;;;;;;;;;;4973514;28;20037;-72
2022/03/26 09:27:49;;;;;;;11.65;5.78;;;;;;;;;;4973449;28;20054;-72
2022/03/26 09:30:15;;;;;;;13.32;5.20;;;;;;;;;;4973537;28;20382;-74
2022/03/26 09:32:44;;;;;;;10.40;5.55;;;;;;;;;;4973608;28;20027;-77
2022/03/26 09:35:10;;;;;;;13.60;5.70;;;;;;;;;;4973588;28;20031;-75
2022/03/26 09:37:40;;;;;;;10.60;5.47;;;;;;;;;;4973440;28;20547;-76
2022/03/26 09:40:07;;;;;;;16.27;5.63;;;;;;;;;;4973505;28;20049;-78
2022/03/26 09:42:34;;;;;;;9.48;5.35;;;;;;;;;;4973485;28;20061;-77
2022/03/26 09:45:00;;;;;;;13.13;5.88;;;;;;;;;;4988042;28;20053;-74
2022/03/26 09:47:25;;;;;;;10.18;5.03;;;;;;;;;;4972827;28;20461;-76
2022/03/26 09:49:51;;;;;;;12.68;5.93;;;;;;;;;;4973433;28;20042;-77
2022/03/26 09:52:17;;;;;;;13.30;5.30;;;;;;;;;;4973936;28;20027;-77
2022/03/26 09:54:44;;;;;;;14.20;5.35;;;;;;;;;;4976195;28;20026;-76
2022/03/26 09:57:09;;;;;;;12.63;6.20;;;;;;;;;;4977062;28;20106;-73
2022/03/26 09:59:36;;;;;;;11.55;5.38;;;;;;;;;;4976941;28;20454;-76
2022/03/26 10:02:02;;;;;;;15.45;9.23;;;;;;;;;;4976844;28;20030;-77
2022/03/26 10:04:39;;;;;;;16.85;5.10;;;;;;;;;;4976737;28;20485;-77
2022/03/26 10:07:05;;;;;;;13.93;5.18;;;;;;;;;;4976535;28;20493;-73
2022/03/26 10:09:35;;;;;;;11.50;5.63;;;;;;;;;;4976624;28;20090;-76
2022/03/26 10:12:10;;;;;;;12.60;5.25;;;;;;;;;;4976969;28;20031;-74
2022/03/26 10:14:44;;;;;;;9.70;4.75;;;;;;;;;;4976464;28;20109;-78
2022/03/26 10:17:17;;;;;;;10.57;5.18;;;;;;;;;;4977394;28;20116;-74
2022/03/26 10:19:55;;;;;;;12.57;5.30;;;;;;;;;;4977292;28;20097;-78
2022/03/26 10:22:38;;;;;;;9.95;5.05;;;;;;;;;;4977369;28;20090;-77
2022/03/26 10:25:14;;;;;;;9.55;4.95;;;;;;;;;;4977176;28;20129;-76
2022/03/26 10:27:44;;;;;;;12.40;5.18;;;;;;;;;;4975785;28;20524;-77
2022/03/26 10:30:13;;;;;;;13.05;5.05;;;;;;;;;;4976801;28;20039;-77
2022/03/26 10:32:43;;;;;;;9.05;4.82;;;;;;;;;;4975848;28;20034;-77
2022/03/26 10:35:11;;;;;;;10.75;4.78;;;;;;;;;;4977270;28;20512;-78
2022/03/26 10:37:49;;;;;;;14.57;5.22;;;;;;;;;;4977288;28;20064;-78
2022/03/26 10:40:21;;;;;;;9.95;5.28;;;;;;;;;;4976882;28;20085;-78
2022/03/26 10:42:58;;;;;;;7.97;4.72;;;;;;;;;;4976952;28;20043;-76
2022/03/26 10:45:25;;;;;;;8.25;5.00;;;;;;;;;;4976694;28;20045;-78
2022/03/26 10:47:58;;;;;;;14.40;5.00;;;;;;;;;;4976585;28;20031;-78
2022/03/26 10:50:25;;;;;;;;;;;;;;;;;;4976988;28;20027;-75
2022/03/26 10:52:55;;;;;;;10.60;5.15;;;;;;;;;;4976577;28;20424;-76
2022/03/26 10:55:22;;;;;;;10.50;5.07;;;;;;;;;;4976630;28;20034;-77
2022/03/26 10:57:48;;;;;;;9.13;5.30;;;;;;;;;;4976494;28;20023;-77
2022/03/26 11:00:16;;;;;;;7.93;4.50;;;;;;;;;;4976609;28;20520;-77
2022/03/26 11:02:43;;;;;;;8.70;4.40;;;;;;;;;;4976079;28;20027;-76
2022/03/26 11:05:10;;;;;;;11.60;5.40;;;;;;;;;;4975894;28;20489;-76
2022/03/26 11:07:37;;;;;;;9.57;5.05;;;;;;;;;;4976138;28;20041;-76
2022/03/26 11:10:06;;;;;;;9.00;4.97;;;;;;;;;;4976313;28;20039;-75
2022/03/26 11:12:33;;;;;;;8.00;4.55;;;;;;;;;;4975034;28;20388;-77
2022/03/26 11:15:06;;;;;;;10.80;4.97;;;;;;;;;;4976076;28;20389;-76
2022/03/26 11:17:44;;;;;;;8.80;4.80;;;;;;;;;;4975553;28;20042;-77
2022/03/26 11:20:22;;;;;;;10.25;3.92;;;;;;;;;;4976336;28;20457;-79
2022/03/26 11:23:27;;;;;;;12.75;4.95;;;;;;;;;;4976142;28;20058;-76
2022/03/26 11:26:16;;;;;;;13.23;6.22;;;;;;;;;;4975794;28;20038;-76
2022/03/26 11:28:53;;;;;;;13.95;7.13;;;;;;;;;;4974583;28;20047;-76
2022/03/26 11:31:30;;;;;;;11.57;4.70;;;;;;;;;;4975819;28;20370;-76
2022/03/26 11:34:04;;;;;;;8.52;4.18;;;;;;;;;;4975736;28;20046;-76
2022/03/26 11:36:30;;;;;;;12.35;5.13;;;;;;;;;;4975721;28;20036;-76
2022/03/26 11:39:10;;;;;;;9.50;4.50;;;;;;;;;;4975851;28;20031;-76
2022/03/26 11:41:37;;;;;;;8.93;4.40;;;;;;;;;;4974543;28;20113;-75
2022/03/26 11:44:03;;;;;;;13.52;4.75;;;;;;;;;;4975691;28;20432;-75
2022/03/26 11:50:41;;;;;;;12.65;4.53;;;;;;;;;;4975920;28;20121;-77
2022/03/26 11:52:34;;;;;;;13.32;4.47;;;;;;;;;;4975123;28;20062;-75
2022/03/26 11:55:18;;;;;;;8.10;4.85;;;;;;;;;;4975146;28;20461;-75
2022/03/26 11:57:44;;;;;;;13.02;4.68;;;;;;;;;;4975243;28;20041;-77
2022/03/26 12:00:20;;;;;;;10.02;4.68;;;;;;;;;;4975145;28;20350;-76
2022/03/26 12:02:51;;;;;;;8.07;4.40;;;;;;;;;;4975064;28;20054;-77
2022/03/26 12:08:41;;;;;;;11.32;4.90;;;;;;;;;;4975093;28;20039;-77
2022/03/26 12:11:07;;;;;;;14.30;7.05;;;;;;;;;;4974503;28;20078;-76
2022/03/26 12:13:34;;;;;;;10.77;7.15;;;;;;;;;;4975167;28;20378;-77
2022/03/26 12:16:05;;;;;;;8.93;4.72;;;;;;;;;;4973078;28;20041;-77
2022/03/26 12:18:33;;;;;;;11.55;4.93;;;;;;;;;;4974709;28;20037;-78
2022/03/26 12:21:17;;;;;;;12.00;5.45;;;;;;;;;;4975170;28;20026;-78
2022/03/26 12:23:43;;;;;;;10.57;4.70;;;;;;;;;;4974868;28;20034;-76
2022/03/26 12:26:09;;;;;;;11.77;4.85;;;;;;;;;;4974906;28;20026;-75
2022/03/26 12:28:40;;;;;;;9.80;4.45;;;;;;;;;;4975005;28;20035;-79
2022/03/26 12:31:10;;;;;;;11.45;5.20;;;;;;;;;;4974871;28;20027;-78
2022/03/26 12:33:47;;;;;;;9.00;4.55;;;;;;;;;;4974837;28;20488;-72
2022/03/26 12:36:15;;;;;;;11.80;4.47;;;;;;;;;;4974686;28;20027;-75
2022/03/26 12:38:46;;;;;;;9.68;4.80;;;;;;;;;;4974765;28;20107;-76
2022/03/26 12:41:13;;;;;;;13.07;4.55;;;;;;;;;;4974598;28;20034;-77
2022/03/26 12:43:39;;;;;;;11.80;6.43;;;;;;;;;;4975089;28;20378;-76
2022/03/26 12:46:13;;;;;;;30.95;20.38;;;;;;;;;;4974792;28;20082;-76
2022/03/26 12:48:38;;;;;;;12.40;7.57;;;;;;;;;;4974758;28;20118;-76
2022/03/26 12:51:06;;;;;;;16.92;9.43;;;;;;;;;;4974584;28;20114;-75
2022/03/26 12:53:40;;;;;;;10.35;4.63;;;;;;;;;;4973687;28;20039;-76
2022/03/26 12:56:11;;;;;;;11.82;5.68;;;;;;;;;;4974104;28;20034;-78
2022/03/26 13:01:23;;;;;;;14.80;7.90;;;;;;;;;;4974076;28;20043;-74
2022/03/26 13:03:51;;;;;;;11.82;6.18;;;;;;;;;;4973901;28;20027;-75
2022/03/26 13:06:19;;;;;;;12.75;5.00;;;;;;;;;;4974229;28;20042;-76
2022/03/26 13:08:52;;;;;;;11.27;5.10;;;;;;;;;;4974493;28;20042;-74
2022/03/26 13:11:20;;;;;;;14.38;5.88;;;;;;;;;;4974274;28;20082;-73
2022/03/26 13:13:55;;;;;;;12.68;5.35;;;;;;;;;;4974282;28;20042;-73
2022/03/26 13:16:24;;;;;;;14.73;5.32;;;;;;;;;;4974450;28;20046;-73
2022/03/26 13:18:56;;;;;;;23.40;6.45;;;;;;;;;;4974036;28;20034;-76
2022/03/26 13:21:24;;;;;;;23.23;12.93;;;;;;;;;;4967942;28;20035;-74
2022/03/26 13:23:52;;;;;;;10.23;5.55;;;;;;;;;;4966470;28;20027;-75
2022/03/26 13:26:18;;;;;;;14.27;6.80;;;;;;;;;;4972540;28;20485;-77
2022/03/26 13:28:43;;;;;;;8.85;5.43;;;;;;;;;;4974343;28;20031;-74
2022/03/26 13:31:24;;;;;;;14.27;6.45;;;;;;;;;;4974281;28;20062;-74
2022/03/26 13:33:51;;;;;;;11.57;6.10;;;;;;;;;;4974198;28;20039;-73
2022/03/26 13:36:28;;;;;;;11.40;5.30;;;;;;;;;;4967141;28;20450;-76
2022/03/26 13:38:55;;;;;;;19.48;10.57;;;;;;;;;;4971381;28;20391;-73
2022/03/26 13:41:23;;;;;;;16.35;7.50;;;;;;;;;;4972304;28;20358;-75
2022/03/26 13:43:50;;;;;;;9.52;5.40;;;;;;;;;;4972681;28;20109;-72
2022/03/26 13:46:17;;;;;;;10.73;5.63;;;;;;;;;;4973090;28;20030;-73
2022/03/26 13:48:52;;;;;;;12.93;4.53;;;;;;;;;;4970028;28;20105;-73
2022/03/26 13:51:32;;;;;;;26.77;13.50;;;;;;;;;;4973372;28;20497;-72
2022/03/26 13:54:04;;;;;;;11.15;5.32;;;;;;;;;;4973079;28;20031;-71
2022/03/26 13:56:33;;;;;;;14.60;5.45;;;;;;;;;;4972956;28;20035;-71
2022/03/26 13:59:08;;;;;;;10.45;5.05;;;;;;;;;;4973083;28;20560;-70
2022/03/26 14:01:41;;;;;;;10.80;5.35;;;;;;;;;;4972754;28;20086;-74
2022/03/26 14:04:07;;;;;;;9.80;4.60;;;;;;;;;;4973201;28;20051;-74
2022/03/26 14:06:37;;;;;;;12.52;5.30;;;;;;;;;;4973021;28;20288;-74
2022/03/26 14:09:05;;;;;;;13.73;5.60;;;;;;;;;;4972979;28;20042;-72
2022/03/26 14:11:30;;;;;;;13.32;5.72;;;;;;;;;;4973123;28;20434;-74
2022/03/26 14:13:56;;;;;;;11.60;4.90;;;;;;;;;;4973180;28;20035;-73
2022/03/26 14:16:22;;;;;;;9.70;4.85;;;;;;;;;;4973191;28;20386;-75
2022/03/26 14:18:48;;;;;;;9.20;4.90;;;;;;;;;;4973150;28;20090;-73
2022/03/26 14:21:14;;;;;;;11.82;5.63;;;;;;;;;;4972978;28;20470;-71
2022/03/26 14:23:41;;;;;;;18.40;9.32;;;;;;;;;;4973412;28;20538;-73
2022/03/26 14:26:07;;;;;;;8.75;5.43;;;;;;;;;;4973152;28;20167;-73
2022/03/26 14:28:34;;;;;;;15.32;6.95;;;;;;;;;;4973220;28;20117;-74
2022/03/26 14:30:59;;;;;;;9.13;4.88;;;;;;;;;;4969759;28;20027;-75
2022/03/26 14:33:25;;;;;;;10.73;4.93;;;;;;;;;;4972936;28;20122;-74
2022/03/26 14:35:53;;;;;;;20.23;6.32;;;;;;;;;;4973085;28;20030;-76
2022/03/26 14:38:20;;;;;;;13.20;5.82;;;;;;;;;;4973261;28;20035;-74
2022/03/26 14:40:47;;;;;;;13.02;5.43;;;;;;;;;;4971581;28;20355;-75
2022/03/26 14:43:13;;;;;;;11.55;6.40;;;;;;;;;;4980793;28;20090;-75